createdAt,value
2017-11-28T00:00:52.938Z,6.80
2017-11-28T00:03:20.711Z,6.80
2017-11-28T00:05:48.280Z,6.80
2017-11-28T00:08:15.878Z,6.80
2017-11-28T00:10:44.230Z,6.80
2017-11-28T00:13:12.427Z,6.80
2017-11-28T00:15:40.749Z,6.80
2017-11-28T00:18:08.318Z,6.80
2017-11-28T00:20:35.923Z,6.80
2017-11-28T00:23:03.511Z,6.80
2017-11-28T00:25:31.527Z,6.80
2017-11-28T00:27:59.097Z,6.90
2017-11-28T00:30:26.679Z,6.90
2017-11-28T00:32:55.085Z,6.90
2017-11-28T00:35:22.668Z,6.80
2017-11-28T00:37:50.650Z,6.80
2017-11-28T00:40:18.214Z,6.90
2017-11-28T00:42:47.366Z,6.90
2017-11-28T00:45:15.137Z,6.90
2017-11-28T00:47:42.967Z,6.90
2017-11-28T00:50:11.342Z,6.90
2017-11-28T00:52:39.041Z,6.90
2017-11-28T00:55:07.004Z,6.90
2017-11-28T00:57:34.590Z,6.90
2017-11-28T01:00:02.310Z,6.90
2017-11-28T01:02:30.939Z,6.90
2017-11-28T01:04:58.503Z,6.90
2017-11-28T01:07:26.136Z,6.90
2017-11-28T01:09:53.703Z,6.90
2017-11-28T01:12:21.318Z,6.90
2017-11-28T01:14:48.891Z,6.90
2017-11-28T01:17:17.540Z,6.90
2017-11-28T01:19:45.094Z,6.80
2017-11-28T01:22:12.670Z,6.90
2017-11-28T01:24:40.303Z,6.90
2017-11-28T01:27:07.864Z,6.90
2017-11-28T01:29:35.837Z,6.90
2017-11-28T01:32:03.396Z,6.90
2017-11-28T01:34:31.057Z,6.90
2017-11-28T01:36:58.666Z,6.90
2017-11-28T01:39:26.999Z,7.00
2017-11-28T01:41:54.964Z,6.90
2017-11-28T01:44:22.527Z,7.00
2017-11-28T01:46:50.329Z,7.00
2017-11-28T01:49:18.975Z,7.00
2017-11-28T01:51:46.534Z,7.00
2017-11-28T01:54:14.183Z,7.00
2017-11-28T01:56:41.756Z,7.00
2017-11-28T01:59:09.827Z,7.00
2017-11-28T02:01:37.374Z,7.00
2017-11-28T02:04:04.922Z,7.00
2017-11-28T02:06:32.614Z,7.00
2017-11-28T02:09:00.171Z,7.00
2017-11-28T02:11:27.790Z,7.00
2017-11-28T02:13:55.348Z,7.00
2017-11-28T02:16:23.250Z,7.00
2017-11-28T02:18:50.870Z,7.00
2017-11-28T02:21:18.431Z,6.90
2017-11-28T02:23:46.024Z,6.90
2017-11-28T02:26:13.741Z,6.90
2017-11-28T02:28:42.387Z,6.90
2017-11-28T02:31:09.951Z,6.90
2017-11-28T02:33:37.517Z,6.90
2017-11-28T02:36:05.130Z,6.90
2017-11-28T02:38:32.664Z,6.80
2017-11-28T02:41:12.067Z,6.80
2017-11-28T02:43:39.644Z,6.80
2017-11-28T02:46:10.206Z,6.80
2017-11-28T02:48:37.767Z,6.80
2017-11-28T02:51:08.911Z,6.80
2017-11-28T02:53:36.529Z,6.80
2017-11-28T02:56:05.610Z,6.70
2017-11-28T02:58:36.534Z,6.70
2017-11-28T03:01:23.878Z,6.70
2017-11-28T03:03:51.846Z,6.70
2017-11-28T03:06:19.411Z,6.70
2017-11-28T03:08:46.975Z,6.70
2017-11-28T03:11:14.569Z,6.70
2017-11-28T03:13:42.866Z,6.70
2017-11-28T03:16:11.119Z,6.60
2017-11-28T03:21:37.398Z,6.60
2017-11-28T03:27:01.779Z,6.60
2017-11-28T03:29:45.016Z,6.60
2017-11-28T03:32:12.643Z,6.60
2017-11-28T03:34:40.187Z,6.60
2017-11-28T03:37:08.238Z,6.60
2017-11-28T03:39:35.768Z,6.70
2017-11-28T03:42:03.334Z,6.70
2017-11-28T03:44:49.612Z,6.70
2017-11-28T03:47:19.347Z,6.70
2017-11-28T03:49:46.963Z,6.70
2017-11-28T03:52:14.529Z,6.70
2017-11-28T03:54:42.890Z,6.80
2017-11-28T03:57:10.795Z,6.80
2017-11-28T03:59:38.700Z,6.80
2017-11-28T04:02:06.262Z,6.80
2017-11-28T04:04:33.827Z,6.80
2017-11-28T04:07:01.410Z,6.90
2017-11-28T04:09:29.172Z,6.90
2017-11-28T04:11:57.555Z,6.90
2017-11-28T04:14:25.107Z,6.90
2017-11-28T04:16:53.736Z,7.00
2017-11-28T04:19:21.301Z,6.90
2017-11-28T04:21:48.882Z,6.90
2017-11-28T04:24:16.487Z,6.90
2017-11-28T04:26:44.054Z,7.00
2017-11-28T04:29:11.655Z,7.00
2017-11-28T04:31:39.235Z,7.00
2017-11-28T04:34:07.091Z,7.00
2017-11-28T04:36:34.662Z,7.00
2017-11-28T04:39:02.231Z,7.00
2017-11-28T04:41:29.814Z,7.00
2017-11-28T04:43:58.133Z,7.00
2017-11-28T04:46:25.738Z,7.00
2017-11-28T04:48:54.067Z,7.00
2017-11-28T04:51:22.251Z,7.00
2017-11-28T04:53:49.819Z,7.10
2017-11-28T04:56:17.425Z,7.10
2017-11-28T04:58:45.130Z,7.10
2017-11-28T05:01:12.684Z,7.10
2017-11-28T05:03:40.317Z,7.10
2017-11-28T05:06:07.893Z,7.10
2017-11-28T05:08:35.765Z,7.10
2017-11-28T05:11:03.335Z,7.10
2017-11-28T05:13:30.898Z,7.10
2017-11-28T05:15:58.509Z,7.10
2017-11-28T05:18:26.835Z,7.10
2017-11-28T05:20:54.511Z,7.00
2017-11-28T05:23:22.085Z,7.00
2017-11-28T05:25:50.738Z,7.00
2017-11-28T05:28:18.290Z,7.00
2017-11-28T05:30:45.970Z,7.00
2017-11-28T05:33:13.575Z,7.00
2017-11-28T05:35:41.119Z,7.00
2017-11-28T05:38:08.719Z,7.00
2017-11-28T05:40:36.263Z,7.00
2017-11-28T05:43:04.161Z,7.00
2017-11-28T05:45:31.732Z,7.00
2017-11-28T05:47:59.487Z,7.00
2017-11-28T05:50:27.088Z,7.00
2017-11-28T05:52:54.667Z,7.00
2017-11-28T05:55:22.671Z,7.00
2017-11-28T05:57:50.355Z,7.00
2017-11-28T06:00:17.938Z,7.00
2017-11-28T06:02:45.539Z,7.00
2017-11-28T06:05:13.097Z,7.00
2017-11-28T06:07:40.970Z,7.00
2017-11-28T06:10:08.534Z,7.00
2017-11-28T06:12:36.100Z,7.00
2017-11-28T06:15:03.707Z,7.00
2017-11-28T06:17:31.287Z,7.00
2017-11-28T06:19:59.058Z,7.00
2017-11-28T06:22:26.619Z,7.00
2017-11-28T06:24:54.751Z,6.90
2017-11-28T06:27:22.326Z,6.90
2017-11-28T06:29:49.919Z,6.90
2017-11-28T06:32:17.523Z,6.90
2017-11-28T06:34:45.067Z,6.90
2017-11-28T06:37:12.808Z,6.90
2017-11-28T06:39:42.963Z,6.90
2017-11-28T06:42:26.599Z,6.90
2017-11-28T06:44:55.697Z,6.90
2017-11-28T06:47:23.279Z,6.90
2017-11-28T06:49:51.673Z,6.90
2017-11-28T06:52:19.419Z,6.90
2017-11-28T06:54:48.165Z,6.90
2017-11-28T06:57:15.717Z,6.90
2017-11-28T07:00:03.167Z,6.90
2017-11-28T07:02:36.382Z,6.90
2017-11-28T07:05:04.324Z,6.90
2017-11-28T07:07:31.891Z,6.90
2017-11-28T07:09:59.450Z,6.90
2017-11-28T07:12:27.308Z,6.90
2017-11-28T07:14:54.871Z,6.90
2017-11-28T07:17:22.471Z,6.90
2017-11-28T07:19:50.814Z,6.90
2017-11-28T07:22:18.763Z,6.90
2017-11-28T07:24:46.379Z,6.90
2017-11-28T07:27:14.027Z,6.90
2017-11-28T07:29:41.643Z,6.90
2017-11-28T07:32:09.206Z,6.80
2017-11-28T07:34:36.799Z,6.80
2017-11-28T07:37:05.549Z,6.80
2017-11-28T07:39:33.436Z,6.80
2017-11-28T07:42:00.995Z,6.80
2017-11-28T07:44:28.555Z,6.80
2017-11-28T07:46:56.176Z,6.80
2017-11-28T07:49:23.750Z,6.80
2017-11-28T07:51:51.371Z,6.90
2017-11-28T07:54:19.692Z,6.80
2017-11-28T07:56:47.665Z,6.80
2017-11-28T07:59:15.264Z,6.80
2017-11-28T08:01:42.847Z,6.80
2017-11-28T08:04:10.479Z,6.80
2017-11-28T08:06:38.992Z,6.80
2017-11-28T08:09:06.651Z,6.80
2017-11-28T08:11:34.241Z,6.80
2017-11-28T08:14:01.833Z,6.80
2017-11-28T08:16:29.406Z,6.80
2017-11-28T08:18:58.053Z,6.80
2017-11-28T08:21:25.664Z,6.80
2017-11-28T08:23:53.218Z,6.90
2017-11-28T08:26:21.591Z,6.90
2017-11-28T08:28:49.155Z,6.80
2017-11-28T08:31:17.584Z,6.80
2017-11-28T08:33:45.167Z,6.80
2017-11-28T08:36:13.808Z,6.80
2017-11-28T08:38:41.399Z,6.80
2017-11-28T08:41:08.962Z,6.90
2017-11-28T08:43:37.109Z,6.90
2017-11-28T08:46:04.679Z,6.90
2017-11-28T08:48:32.322Z,6.90
2017-11-28T08:50:59.898Z,6.90
2017-11-28T08:53:27.808Z,6.90
2017-11-28T08:55:55.435Z,6.90
2017-11-28T08:58:23.007Z,7.00
2017-11-28T09:00:50.628Z,6.90
2017-11-28T09:03:18.207Z,6.90
2017-11-28T09:05:45.805Z,6.90
2017-11-28T09:08:14.134Z,6.90
2017-11-28T09:10:42.023Z,6.90
2017-11-28T09:13:09.587Z,6.90
2017-11-28T09:15:37.143Z,6.90
2017-11-28T09:18:04.818Z,6.90
2017-11-28T09:20:32.399Z,6.90
2017-11-28T09:23:00.009Z,6.90
2017-11-28T09:25:27.588Z,7.10
2017-11-28T09:27:55.652Z,7.10
2017-11-28T09:30:23.231Z,7.20
2017-11-28T09:32:50.846Z,7.20
2017-11-28T09:35:18.614Z,7.20
2017-11-28T09:37:46.183Z,7.20
2017-11-28T09:40:13.810Z,7.20
2017-11-28T09:42:41.395Z,7.20
2017-11-28T09:45:09.485Z,7.30
2017-11-28T09:47:37.079Z,7.40
2017-11-28T09:50:05.420Z,7.50
2017-11-28T09:52:33.106Z,7.40
2017-11-28T09:55:00.673Z,7.40
2017-11-28T09:57:28.264Z,7.40
2017-11-28T09:59:56.598Z,7.40
2017-11-28T10:02:24.564Z,7.40
2017-11-28T10:04:52.175Z,7.40
2017-11-28T10:07:19.777Z,7.40
2017-11-28T10:09:47.390Z,7.40
2017-11-28T10:12:15.734Z,7.40
2017-11-28T10:14:43.425Z,7.30
2017-11-28T10:17:11.017Z,7.30
2017-11-28T10:19:39.003Z,7.30
2017-11-28T10:22:06.595Z,7.30
2017-11-28T10:24:34.173Z,7.30
2017-11-28T10:27:01.864Z,7.30
2017-11-28T10:29:29.459Z,7.30
2017-11-28T10:31:57.056Z,7.30
2017-11-28T10:34:24.875Z,7.30
2017-11-28T10:36:52.856Z,7.30
2017-11-28T10:39:20.422Z,7.30
2017-11-28T10:41:48.218Z,7.30
2017-11-28T10:44:16.830Z,7.20
2017-11-28T10:46:44.394Z,7.20
2017-11-28T10:49:11.991Z,7.20
2017-11-28T10:51:39.555Z,7.20
2017-11-28T10:54:09.139Z,7.20
2017-11-28T10:56:36.855Z,7.20
2017-11-28T10:59:05.205Z,7.20
2017-11-28T11:01:32.905Z,7.20
2017-11-28T11:04:00.582Z,7.20
2017-11-28T11:06:28.200Z,7.30
2017-11-28T11:08:55.776Z,7.20
2017-11-28T11:11:24.208Z,7.20
2017-11-28T11:13:51.802Z,7.20
2017-11-28T11:16:19.720Z,7.20
2017-11-28T11:18:47.277Z,7.30
2017-11-28T11:21:14.913Z,7.30
2017-11-28T11:23:43.190Z,7.30
2017-11-28T11:26:10.967Z,7.40
2017-11-28T11:28:38.573Z,7.40
2017-11-28T11:31:06.174Z,7.40
2017-11-28T11:33:34.398Z,7.40
2017-11-28T11:36:02.112Z,7.40
2017-11-28T11:38:29.692Z,7.40
2017-11-28T11:40:57.313Z,7.40
2017-11-28T11:43:24.878Z,7.40
2017-11-28T11:45:53.256Z,7.50
2017-11-28T11:48:20.816Z,7.50
2017-11-28T11:50:49.667Z,7.60
2017-11-28T11:53:17.250Z,7.60
2017-11-28T11:55:44.839Z,7.70
2017-11-28T11:58:12.451Z,7.70
2017-11-28T12:00:40.032Z,7.70
2017-11-28T12:03:07.985Z,7.60
2017-11-28T12:05:35.696Z,7.60
2017-11-28T12:08:03.269Z,7.70
2017-11-28T12:10:30.855Z,7.70
2017-11-28T12:12:58.443Z,7.70
2017-11-28T12:15:26.821Z,7.80
2017-11-28T12:17:54.396Z,7.80
2017-11-28T12:20:22.415Z,7.80
2017-11-28T12:22:49.974Z,7.80
2017-11-28T12:25:17.649Z,7.90
2017-11-28T12:27:45.267Z,7.90
2017-11-28T12:30:12.866Z,8.00
2017-11-28T12:32:40.436Z,7.90
2017-11-28T12:35:08.085Z,8.00
2017-11-28T12:37:35.652Z,8.00
2017-11-28T12:40:04.070Z,8.00
2017-11-28T12:42:31.880Z,8.10
2017-11-28T12:44:59.451Z,8.10
2017-11-28T12:47:27.230Z,8.20
2017-11-28T12:49:56.333Z,8.20
2017-11-28T12:52:24.288Z,8.20
2017-11-28T12:54:51.978Z,8.20
2017-11-28T12:57:20.552Z,8.30
2017-11-28T12:59:48.172Z,8.20
2017-11-28T13:02:15.835Z,8.30
2017-11-28T13:04:43.407Z,8.30
2017-11-28T13:07:11.324Z,8.30
2017-11-28T13:09:39.063Z,8.40
2017-11-28T13:12:06.672Z,8.50
2017-11-28T13:14:34.242Z,8.60
2017-11-28T13:17:01.807Z,8.70
2017-11-28T13:19:29.418Z,8.70
2017-11-28T13:21:57.761Z,8.70
2017-11-28T13:24:26.200Z,8.70
2017-11-28T13:26:53.779Z,8.80
2017-11-28T13:29:21.865Z,8.80
2017-11-28T13:31:49.501Z,8.80
2017-11-28T13:34:17.113Z,8.70
2017-11-28T13:36:44.761Z,8.70
2017-11-28T13:39:12.350Z,8.60
2017-11-28T13:41:40.721Z,8.50
2017-11-28T13:44:08.411Z,8.50
2017-11-28T13:46:36.384Z,8.50
2017-11-28T13:49:03.957Z,8.50
2017-11-28T13:51:31.546Z,8.50
2017-11-28T13:53:59.380Z,8.40
2017-11-28T13:56:26.960Z,8.40
2017-11-28T13:58:54.582Z,8.30
2017-11-28T14:01:22.177Z,8.30
2017-11-28T14:03:50.212Z,8.20
2017-11-28T14:06:17.797Z,8.20
2017-11-28T14:08:45.429Z,8.10
2017-11-28T14:11:13.053Z,8.10
2017-11-28T14:13:40.643Z,8.10
2017-11-28T14:16:09.027Z,8.10
2017-11-28T14:18:36.590Z,8.10
2017-11-28T14:21:14.850Z,8.00
2017-11-28T14:23:47.955Z,8.00
2017-11-28T14:29:27.026Z,7.90
2017-11-28T14:32:10.300Z,7.80
2017-11-28T14:37:43.562Z,7.70
2017-11-28T14:40:11.136Z,7.70
2017-11-28T14:42:48.981Z,7.70
2017-11-28T14:45:33.296Z,7.60
2017-11-28T14:48:01.304Z,7.60
2017-11-28T14:50:32.448Z,7.50
2017-11-28T14:53:00.051Z,7.40
2017-11-28T14:55:46.506Z,7.40
2017-11-28T14:58:14.726Z,7.40
2017-11-28T15:00:49.383Z,7.50
2017-11-28T15:03:36.612Z,7.40
2017-11-28T15:06:09.776Z,7.50
2017-11-28T15:08:42.988Z,7.50
2017-11-28T15:11:14.199Z,7.40
2017-11-28T15:14:02.223Z,7.30
2017-11-28T15:16:35.437Z,7.30
2017-11-28T15:19:03.058Z,7.30
2017-11-28T15:21:49.434Z,7.20
2017-11-28T15:27:20.709Z,7.20
2017-11-28T15:29:50.768Z,7.20
2017-11-28T15:32:19.157Z,7.20
2017-11-28T15:34:46.784Z,7.20
2017-11-28T15:37:14.776Z,7.20
2017-11-28T15:39:43.121Z,7.20
2017-11-28T15:42:10.706Z,7.20
2017-11-28T15:44:38.316Z,7.20
2017-11-28T15:47:05.891Z,7.20
2017-11-28T15:49:33.513Z,7.20
2017-11-28T15:52:01.076Z,7.10
2017-11-28T15:54:28.995Z,7.10
2017-11-28T15:56:56.581Z,7.10
2017-11-28T15:59:24.161Z,7.00
2017-11-28T16:01:51.791Z,7.00
2017-11-28T16:04:19.366Z,7.00
2017-11-28T16:06:47.036Z,6.90
2017-11-28T16:09:14.631Z,6.90
2017-11-28T16:11:42.627Z,6.90
2017-11-28T16:14:10.215Z,6.90
2017-11-28T16:16:37.799Z,6.90
2017-11-28T16:19:05.420Z,6.90
2017-11-28T16:21:33.144Z,6.90
2017-11-28T16:24:00.938Z,6.90
2017-11-28T16:26:28.496Z,7.00
2017-11-28T16:28:56.474Z,7.00
2017-11-28T16:31:24.052Z,7.00
2017-11-28T16:33:51.621Z,7.00
2017-11-28T16:36:19.995Z,7.00
2017-11-28T16:38:47.576Z,7.00
2017-11-28T16:41:15.188Z,7.10
2017-11-28T16:43:42.771Z,7.00
2017-11-28T16:46:10.692Z,7.00
2017-11-28T16:48:38.283Z,7.00
2017-11-28T16:51:05.878Z,7.00
2017-11-28T16:53:33.508Z,6.90
2017-11-28T16:56:01.098Z,6.90
2017-11-28T16:58:28.729Z,6.90
2017-11-28T17:00:56.329Z,6.90
2017-11-28T17:03:23.910Z,6.90
2017-11-28T17:05:51.542Z,6.90
2017-11-28T17:08:19.335Z,6.90
2017-11-28T17:10:47.661Z,6.90
2017-11-28T17:13:15.261Z,6.90
2017-11-28T17:15:42.857Z,6.90
2017-11-28T17:18:10.745Z,6.90
2017-11-28T17:20:38.327Z,6.90
2017-11-28T17:23:05.955Z,6.90
2017-11-28T17:25:33.519Z,6.80
2017-11-28T17:28:01.103Z,6.80
2017-11-28T17:30:28.852Z,6.70
2017-11-28T17:32:56.424Z,6.70
2017-11-28T17:35:24.047Z,6.60
2017-11-28T17:37:51.646Z,6.50
2017-11-28T17:40:19.976Z,6.50
2017-11-28T17:42:47.597Z,6.50
2017-11-28T17:45:15.157Z,6.50
2017-11-28T17:47:42.809Z,6.60
2017-11-28T17:50:10.388Z,6.50
2017-11-28T17:52:38.006Z,6.40
2017-11-28T17:55:06.367Z,6.30
2017-11-28T17:57:33.969Z,6.30
2017-11-28T18:00:02.385Z,6.30
2017-11-28T18:02:29.967Z,6.20
2017-11-28T18:04:57.699Z,6.30
2017-11-28T18:07:25.318Z,6.20
2017-11-28T18:09:53.228Z,6.20
2017-11-28T18:12:20.877Z,6.20
2017-11-28T18:14:48.582Z,6.20
2017-11-28T18:17:16.245Z,6.10
2017-11-28T18:19:43.900Z,6.10
2017-11-28T18:22:11.504Z,6.10
2017-11-28T18:24:39.193Z,6.10
2017-11-28T18:27:07.851Z,6.10
2017-11-28T18:29:35.462Z,6.10
2017-11-28T18:32:03.074Z,6.20
2017-11-28T18:34:31.865Z,6.20
2017-11-28T18:37:00.215Z,6.20
2017-11-28T18:39:27.867Z,6.20
2017-11-28T18:41:55.552Z,6.20
2017-11-28T18:44:23.196Z,6.10
2017-11-28T18:46:51.155Z,6.10
2017-11-28T18:49:18.743Z,6.00
2017-11-28T18:51:46.898Z,6.00
2017-11-28T18:54:14.492Z,5.90
2017-11-28T18:56:42.254Z,5.90
2017-11-28T18:59:09.905Z,5.90
2017-11-28T19:01:38.484Z,5.80
2017-11-28T19:04:06.144Z,5.80
2017-11-28T19:06:33.718Z,5.70
2017-11-28T19:09:02.302Z,5.70
2017-11-28T19:11:29.883Z,5.70
2017-11-28T19:13:57.485Z,5.60
2017-11-28T19:16:25.323Z,5.60
2017-11-28T19:18:53.808Z,5.60
2017-11-28T19:21:21.434Z,5.50
2017-11-28T19:23:49.098Z,5.50
2017-11-28T19:26:17.225Z,5.40
2017-11-28T19:28:44.815Z,5.40
2017-11-28T19:31:12.412Z,5.40
2017-11-28T19:33:40.052Z,5.40
2017-11-28T19:36:08.503Z,5.30
2017-11-28T19:38:36.952Z,5.20
2017-11-28T19:41:04.537Z,5.30
2017-11-28T19:43:32.121Z,5.20
2017-11-28T19:46:00.514Z,5.20
2017-11-28T19:48:28.231Z,5.20
2017-11-28T19:50:55.864Z,5.20
2017-11-28T19:53:23.522Z,5.20
2017-11-28T19:55:51.157Z,5.20
2017-11-28T19:58:19.762Z,5.20
2017-11-28T20:00:47.432Z,5.10
2017-11-28T20:03:15.283Z,5.10
2017-11-28T20:05:43.261Z,5.10
2017-11-28T20:08:10.860Z,5.10
2017-11-28T20:10:39.010Z,5.10
2017-11-28T20:13:06.625Z,5.00
2017-11-28T20:15:34.428Z,5.00
2017-11-28T20:18:02.055Z,5.00
2017-11-28T20:20:29.959Z,5.00
2017-11-28T20:22:57.563Z,4.90
2017-11-28T20:25:25.956Z,4.90
2017-11-28T20:27:53.790Z,4.90
2017-11-28T20:30:21.367Z,4.80
2017-11-28T20:32:49.783Z,4.80
2017-11-28T20:35:17.394Z,4.80
2017-11-28T20:37:47.010Z,4.80
2017-11-28T20:40:15.393Z,4.80
2017-11-28T20:42:43.051Z,4.80
2017-11-28T20:45:10.692Z,4.80
2017-11-28T20:47:38.305Z,4.80
2017-11-28T20:50:06.027Z,4.80
2017-11-28T20:52:33.655Z,4.80
2017-11-28T20:55:01.994Z,4.90
2017-11-28T20:57:29.774Z,4.90
2017-11-28T20:59:57.508Z,4.90
2017-11-28T21:02:25.094Z,5.00
2017-11-28T21:04:53.101Z,5.00
2017-11-28T21:07:20.700Z,5.10
2017-11-28T21:09:48.291Z,5.20
2017-11-28T21:12:15.973Z,5.20
2017-11-28T21:14:43.573Z,5.20
2017-11-28T21:17:11.512Z,5.30
2017-11-28T21:19:39.088Z,5.20
2017-11-28T21:22:06.725Z,5.20
2017-11-28T21:24:34.383Z,5.30
2017-11-28T21:27:01.959Z,5.30
2017-11-28T21:29:29.579Z,5.30
2017-11-28T21:31:57.169Z,5.30
2017-11-28T21:34:25.037Z,5.40
2017-11-28T21:36:52.899Z,5.30
2017-11-28T21:39:20.474Z,5.40
2017-11-28T21:41:48.071Z,5.40
2017-11-28T21:44:16.441Z,5.50
2017-11-28T21:46:44.149Z,5.50
2017-11-28T21:49:11.733Z,5.50
2017-11-28T21:51:39.394Z,5.50
2017-11-28T21:54:07.874Z,5.60
2017-11-28T21:56:35.695Z,5.60
2017-11-28T21:59:03.294Z,5.60
2017-11-28T22:01:31.180Z,5.60
2017-11-28T22:03:58.778Z,5.60
2017-11-28T22:06:26.341Z,5.60
2017-11-28T22:08:54.815Z,5.70
2017-11-28T22:11:22.529Z,5.60
2017-11-28T22:13:50.519Z,5.70
2017-11-28T22:16:18.228Z,5.70
2017-11-28T22:18:46.139Z,5.70
2017-11-28T22:21:13.865Z,5.70
2017-11-28T22:23:41.430Z,5.80
2017-11-28T22:26:09.068Z,5.80
2017-11-28T22:28:36.618Z,5.80
2017-11-28T22:31:04.995Z,5.70
2017-11-28T22:33:32.571Z,5.70
2017-11-28T22:36:01.352Z,5.70
2017-11-28T22:38:28.938Z,5.70
2017-11-28T22:40:56.562Z,5.70
2017-11-28T22:43:24.944Z,5.70
2017-11-28T22:45:52.537Z,5.60
2017-11-28T22:48:20.169Z,5.70
2017-11-28T22:50:48.526Z,5.60
2017-11-28T22:53:16.460Z,5.60
2017-11-28T22:55:44.044Z,5.60
2017-11-28T22:58:11.634Z,5.50
2017-11-28T23:00:39.993Z,5.40
2017-11-28T23:03:07.579Z,5.40
2017-11-28T23:05:35.943Z,5.30
2017-11-28T23:08:03.509Z,5.30
2017-11-28T23:10:32.146Z,5.20
2017-11-28T23:12:59.722Z,5.20
2017-11-28T23:15:27.289Z,5.20
2017-11-28T23:17:55.583Z,5.20
2017-11-28T23:20:23.144Z,5.10
2017-11-28T23:22:50.995Z,5.10
2017-11-28T23:25:19.327Z,5.00
2017-11-28T23:27:47.237Z,5.00
2017-11-28T23:30:14.819Z,5.00
2017-11-28T23:32:42.394Z,5.00
2017-11-28T23:35:10.009Z,4.90
2017-11-28T23:37:37.672Z,4.90
2017-11-28T23:40:05.265Z,4.90
2017-11-28T23:42:32.873Z,4.90
2017-11-28T23:45:00.863Z,4.80
2017-11-28T23:47:28.424Z,4.80
2017-11-28T23:49:55.999Z,4.80
2017-11-28T23:52:24.388Z,4.70
2017-11-28T23:54:51.955Z,4.70
2017-11-28T23:57:20.335Z,4.60
2017-11-28T23:59:47.893Z,4.60
